sensor_id;sensor_type;location;lat;lon;timestamp;pressure;altitude;pressure_sealevel;temperature;humidity
71105;BME280;58760;48.716;8.962;2022-09-09T00:00:59;96157.78;;;14.18;78.19
71105;BME280;58760;48.716;8.962;2022-09-09T00:03:53;96158.44;;;14.20;78.81
71105;BME280;58760;48.716;8.962;2022-09-09T00:06:23;96159.03;;;14.22;79.10
71105;BME280;58760;48.716;8.962;2022-09-09T00:11:31;96148.97;;;14.24;77.77
71105;BME280;58760;48.716;8.962;2022-09-09T00:17:37;96149.59;;;14.33;77.08
71105;BME280;58760;48.716;8.962;2022-09-09T00:20:29;96149.81;;;14.38;76.78
71105;BME280;58760;48.716;8.962;2022-09-09T00:23:04;96144.28;;;14.39;76.74
71105;BME280;58760;48.716;8.962;2022-09-09T00:25:42;96137.09;;;14.46;78.28
71105;BME280;58760;48.716;8.962;2022-09-09T00:28:20;96142.03;;;14.49;76.37
71105;BME280;58760;48.716;8.962;2022-09-09T00:30:47;96137.28;;;14.51;76.06
71105;BME280;58760;48.716;8.962;2022-09-09T00:33:15;96144.06;;;14.54;76.03
71105;BME280;58760;48.716;8.962;2022-09-09T00:35:45;96140.56;;;14.60;76.55
71105;BME280;58760;48.716;8.962;2022-09-09T00:38:19;96146.31;;;14.63;78.56
71105;BME280;58760;48.716;8.962;2022-09-09T00:41:22;96149.59;;;14.72;77.79
71105;BME280;58760;48.716;8.962;2022-09-09T00:44:01;96152.06;;;14.67;78.31
71105;BME280;58760;48.716;8.962;2022-09-09T00:46:41;96150.63;;;14.64;78.07
71105;BME280;58760;48.716;8.962;2022-09-09T00:52:35;96142.63;;;14.71;77.10
71105;BME280;58760;48.716;8.962;2022-09-09T00:57:51;96140.94;;;14.77;78.46
71105;BME280;58760;48.716;8.962;2022-09-09T01:00:24;96130.69;;;14.74;77.09
71105;BME280;58760;48.716;8.962;2022-09-09T01:11:32;96148.53;;;14.80;75.17
71105;BME280;58760;48.716;8.962;2022-09-09T01:17:35;96148.56;;;14.66;76.21
71105;BME280;58760;48.716;8.962;2022-09-09T01:20:10;96152.69;;;14.62;76.89
71105;BME280;58760;48.716;8.962;2022-09-09T01:22:56;96165.63;;;14.65;76.85
71105;BME280;58760;48.716;8.962;2022-09-09T01:25:56;96156.19;;;14.63;76.51
71105;BME280;58760;48.716;8.962;2022-09-09T01:28:21;96152.06;;;14.60;76.54
71105;BME280;58760;48.716;8.962;2022-09-09T01:30:47;96152.69;;;14.62;76.51
71105;BME280;58760;48.716;8.962;2022-09-09T01:33:15;96153.13;;;14.59;76.15
71105;BME280;58760;48.716;8.962;2022-09-09T01:35:51;96168.09;;;14.74;75.40
71105;BME280;58760;48.716;8.962;2022-09-09T01:38:20;96167.25;;;14.66;75.22
71105;BME280;58760;48.716;8.962;2022-09-09T01:40:46;96170.56;;;14.62;75.62
71105;BME280;58760;48.716;8.962;2022-09-09T01:43:12;96168.09;;;14.60;74.78
71105;BME280;58760;48.716;8.962;2022-09-09T01:45:39;96162.75;;;14.74;74.33
71105;BME280;58760;48.716;8.962;2022-09-09T01:48:05;96160.72;;;14.69;74.31
71105;BME280;58760;48.716;8.962;2022-09-09T01:50:31;96145.53;;;14.63;74.39
71105;BME280;58760;48.716;8.962;2022-09-09T01:52:59;96144.47;;;14.71;74.94
71105;BME280;58760;48.716;8.962;2022-09-09T01:55:32;96150.22;;;14.68;74.40
71105;BME280;58760;48.716;8.962;2022-09-09T01:58:13;96150.44;;;14.66;74.06
71105;BME280;58760;48.716;8.962;2022-09-09T02:00:50;96157.41;;;14.74;73.62
71105;BME280;58760;48.716;8.962;2022-09-09T02:03:28;96154.97;;;14.65;74.26
71105;BME280;58760;48.716;8.962;2022-09-09T02:06:36;96159.03;;;14.81;72.68
71105;BME280;58760;48.716;8.962;2022-09-09T02:09:05;96155.09;;;14.90;72.14
71105;BME280;58760;48.716;8.962;2022-09-09T02:11:31;96138.94;;;14.72;72.45
71105;BME280;58760;48.716;8.962;2022-09-09T02:14:12;96142.78;;;14.89;72.48
71105;BME280;58760;48.716;8.962;2022-09-09T02:16:44;96143.84;;;14.69;73.86
71105;BME280;58760;48.716;8.962;2022-09-09T02:19:23;96158.06;;;14.49;74.66
71105;BME280;58760;48.716;8.962;2022-09-09T02:21:54;96169.94;;;14.47;74.92
71105;BME280;58760;48.716;8.962;2022-09-09T02:24:21;96167.66;;;14.31;75.94
71105;BME280;58760;48.716;8.962;2022-09-09T02:26:50;96182.00;;;13.97;76.62
71105;BME280;58760;48.716;8.962;2022-09-09T02:29:22;96171.94;;;13.99;77.14
71105;BME280;58760;48.716;8.962;2022-09-09T02:31:49;96172.09;;;13.78;78.42
71105;BME280;58760;48.716;8.962;2022-09-09T02:34:18;96167.97;;;13.69;79.09
71105;BME280;58760;48.716;8.962;2022-09-09T02:36:45;96178.00;;;13.67;80.16
71105;BME280;58760;48.716;8.962;2022-09-09T02:39:12;96173.31;;;13.69;79.48
71105;BME280;58760;48.716;8.962;2022-09-09T02:41:40;96168.16;;;13.67;79.98
71105;BME280;58760;48.716;8.962;2022-09-09T02:44:11;96166.34;;;13.68;80.05
71105;BME280;58760;48.716;8.962;2022-09-09T02:52:07;96143.19;;;13.75;78.82
71105;BME280;58760;48.716;8.962;2022-09-09T02:54:34;96141.31;;;13.69;78.68
71105;BME280;58760;48.716;8.962;2022-09-09T02:57:10;96136.75;;;13.62;79.09
71105;BME280;58760;48.716;8.962;2022-09-09T02:59:36;96138.81;;;13.60;79.08
71105;BME280;58760;48.716;8.962;2022-09-09T03:02:02;96135.97;;;13.62;78.92
71105;BME280;58760;48.716;8.962;2022-09-09T03:04:28;96151.34;;;13.67;78.37
71105;BME280;58760;48.716;8.962;2022-09-09T03:06:54;96146.22;;;13.58;78.85
71105;BME280;58760;48.716;8.962;2022-09-09T03:09:19;96137.78;;;13.48;78.64
71105;BME280;58760;48.716;8.962;2022-09-09T03:11:44;96147.78;;;13.46;79.58
71105;BME280;58760;48.716;8.962;2022-09-09T03:14:10;96142.88;;;13.43;80.11
71105;BME280;58760;48.716;8.962;2022-09-09T03:16:36;96147.97;;;13.38;79.68
71105;BME280;58760;48.716;8.962;2022-09-09T03:19:02;96145.53;;;13.43;81.04
71105;BME280;58760;48.716;8.962;2022-09-09T03:21:27;96138.97;;;13.39;79.72
71105;BME280;58760;48.716;8.962;2022-09-09T03:23:52;96144.53;;;13.44;79.90
71105;BME280;58760;48.716;8.962;2022-09-09T03:26:18;96140.59;;;13.40;79.43
71105;BME280;58760;48.716;8.962;2022-09-09T03:28:44;96146.97;;;13.39;79.79
71105;BME280;58760;48.716;8.962;2022-09-09T03:31:10;96160.88;;;13.35;80.73
71105;BME280;58760;48.716;8.962;2022-09-09T03:33:37;96151.03;;;13.29;80.01
71105;BME280;58760;48.716;8.962;2022-09-09T03:36:03;96148.94;;;13.24;79.95
71105;BME280;58760;48.716;8.962;2022-09-09T03:38:28;96153.00;;;13.20;80.42
71105;BME280;58760;48.716;8.962;2022-09-09T03:40:56;96153.00;;;13.20;80.19
71105;BME280;58760;48.716;8.962;2022-09-09T03:43:23;96142.78;;;13.24;80.79
71105;BME280;58760;48.716;8.962;2022-09-09T03:45:49;96159.41;;;13.26;80.83
71105;BME280;58760;48.716;8.962;2022-09-09T03:48:16;96159.56;;;13.18;80.78
71105;BME280;58760;48.716;8.962;2022-09-09T03:50:59;96168.97;;;13.14;81.44
71105;BME280;58760;48.716;8.962;2022-09-09T03:53:26;96157.53;;;13.13;82.58
71105;BME280;58760;48.716;8.962;2022-09-09T03:55:53;96161.41;;;13.17;81.76
71105;BME280;58760;48.716;8.962;2022-09-09T03:58:20;96156.47;;;13.14;81.63
71105;BME280;58760;48.716;8.962;2022-09-09T04:03:25;96143.16;;;13.14;81.08
71105;BME280;58760;48.716;8.962;2022-09-09T04:05:51;96143.97;;;13.15;81.16
71105;BME280;58760;48.716;8.962;2022-09-09T04:08:18;96143.38;;;13.13;80.71
71105;BME280;58760;48.716;8.962;2022-09-09T04:10:48;96149.59;;;13.26;81.00
71105;BME280;58760;48.716;8.962;2022-09-09T04:13:14;96144.34;;;13.46;80.22
71105;BME280;58760;48.716;8.962;2022-09-09T04:15:42;96158.44;;;13.40;80.53
71105;BME280;58760;48.716;8.962;2022-09-09T04:18:08;96159.91;;;13.42;79.93
71105;BME280;58760;48.716;8.962;2022-09-09T04:20:33;96161.38;;;13.51;80.17
71105;BME280;58760;48.716;8.962;2022-09-09T04:22:59;96161.81;;;13.61;80.13
71105;BME280;58760;48.716;8.962;2022-09-09T04:25:24;96162.00;;;13.67;79.54
71105;BME280;58760;48.716;8.962;2022-09-09T04:27:57;96160.97;;;13.61;80.31
71105;BME280;58760;48.716;8.962;2022-09-09T04:30:23;96158.28;;;13.54;81.02
71105;BME280;58760;48.716;8.962;2022-09-09T04:32:49;96160.56;;;13.57;81.32
71105;BME280;58760;48.716;8.962;2022-09-09T04:35:15;96167.94;;;13.55;81.21
71105;BME280;58760;48.716;8.962;2022-09-09T04:37:40;96167.91;;;13.49;81.09
71105;BME280;58760;48.716;8.962;2022-09-09T04:40:07;96163.84;;;13.59;80.38
71105;BME280;58760;48.716;8.962;2022-09-09T04:42:36;96164.88;;;13.58;80.72
71105;BME280;58760;48.716;8.962;2022-09-09T04:45:03;96163.25;;;13.64;79.93
71105;BME280;58760;48.716;8.962;2022-09-09T04:47:28;96153.81;;;13.61;80.75
71105;BME280;58760;48.716;8.962;2022-09-09T04:49:53;96167.97;;;13.62;81.16
71105;BME280;58760;48.716;8.962;2022-09-09T04:52:20;96167.59;;;13.72;80.41
71105;BME280;58760;48.716;8.962;2022-09-09T04:54:45;96167.78;;;13.77;79.57
71105;BME280;58760;48.716;8.962;2022-09-09T04:57:11;96176.63;;;13.84;79.29
71105;BME280;58760;48.716;8.962;2022-09-09T04:59:36;96176.22;;;13.87;79.74
71105;BME280;58760;48.716;8.962;2022-09-09T05:02:02;96174.81;;;13.91;79.46
71105;BME280;58760;48.716;8.962;2022-09-09T05:04:28;96177.25;;;13.86;79.69
71105;BME280;58760;48.716;8.962;2022-09-09T05:06:54;96178.09;;;13.99;79.30
71105;BME280;58760;48.716;8.962;2022-09-09T05:09:19;96185.06;;;13.94;79.74
71105;BME280;58760;48.716;8.962;2022-09-09T05:11:44;96181.59;;;14.00;79.30
71105;BME280;58760;48.716;8.962;2022-09-09T05:14:09;96185.28;;;13.99;79.85
71105;BME280;58760;48.716;8.962;2022-09-09T05:16:37;96182.81;;;13.97;80.15
71105;BME280;58760;48.716;8.962;2022-09-09T05:19:03;96185.91;;;14.01;81.27
71105;BME280;58760;48.716;8.962;2022-09-09T05:21:29;96177.09;;;14.00;80.28
71105;BME280;58760;48.716;8.962;2022-09-09T05:23:56;96176.25;;;14.06;81.55
71105;BME280;58760;48.716;8.962;2022-09-09T05:26:22;96181.59;;;14.06;80.10
71105;BME280;58760;48.716;8.962;2022-09-09T05:28:48;96177.69;;;14.09;79.75
71105;BME280;58760;48.716;8.962;2022-09-09T05:31:15;96187.56;;;14.15;79.54
71105;BME280;58760;48.716;8.962;2022-09-09T05:33:42;96191.66;;;14.31;79.32
71105;BME280;58760;48.716;8.962;2022-09-09T05:36:16;96196.00;;;14.32;79.73
71105;BME280;58760;48.716;8.962;2022-09-09T05:38:42;96189.81;;;14.31;80.27
71105;BME280;58760;48.716;8.962;2022-09-09T05:41:08;96192.75;;;14.36;80.41
71105;BME280;58760;48.716;8.962;2022-09-09T05:43:34;96192.13;;;14.60;79.23
71105;BME280;58760;48.716;8.962;2022-09-09T05:48:30;96195.63;;;14.61;78.22
71105;BME280;58760;48.716;8.962;2022-09-09T05:50:57;96195.19;;;14.77;77.35
71105;BME280;58760;48.716;8.962;2022-09-09T05:53:23;96195.03;;;14.65;77.22
71105;BME280;58760;48.716;8.962;2022-09-09T05:55:48;96194.59;;;14.88;76.12
71105;BME280;58760;48.716;8.962;2022-09-09T05:58:14;96190.47;;;14.92;76.69
71105;BME280;58760;48.716;8.962;2022-09-09T06:00:42;96198.69;;;14.91;76.39
71105;BME280;58760;48.716;8.962;2022-09-09T06:03:11;96191.69;;;14.83;76.65
71105;BME280;58760;48.716;8.962;2022-09-09T06:05:36;96191.47;;;14.98;76.11
71105;BME280;58760;48.716;8.962;2022-09-09T06:08:02;96193.78;;;14.81;76.81
71105;BME280;58760;48.716;8.962;2022-09-09T06:10:28;96203.44;;;14.89;76.32
71105;BME280;58760;48.716;8.962;2022-09-09T06:12:53;96201.78;;;14.88;76.97
71105;BME280;58760;48.716;8.962;2022-09-09T06:15:19;96203.84;;;14.92;77.01
71105;BME280;58760;48.716;8.962;2022-09-09T06:17:45;96199.69;;;15.03;76.45
71105;BME280;58760;48.716;8.962;2022-09-09T06:20:10;96198.06;;;15.02;77.00
71105;BME280;58760;48.716;8.962;2022-09-09T06:22:36;96204.59;;;15.12;76.18
71105;BME280;58760;48.716;8.962;2022-09-09T06:25:01;96201.34;;;15.04;76.52
71105;BME280;58760;48.716;8.962;2022-09-09T06:27:27;96201.31;;;15.10;76.68
71105;BME280;58760;48.716;8.962;2022-09-09T06:29:53;96194.28;;;15.29;76.14
71105;BME280;58760;48.716;8.962;2022-09-09T06:32:19;96199.63;;;15.29;76.04
71105;BME280;58760;48.716;8.962;2022-09-09T06:34:44;96194.88;;;15.38;76.48
71105;BME280;58760;48.716;8.962;2022-09-09T06:37:10;96198.13;;;15.59;75.32
71105;BME280;58760;48.716;8.962;2022-09-09T06:39:35;96191.13;;;15.45;75.37
71105;BME280;58760;48.716;8.962;2022-09-09T06:42:01;96201.63;;;15.47;75.93
71105;BME280;58760;48.716;8.962;2022-09-09T06:44:27;96197.88;;;15.61;75.81
71105;BME280;58760;48.716;8.962;2022-09-09T06:46:52;96197.72;;;15.56;75.90
71105;BME280;58760;48.716;8.962;2022-09-09T06:49:18;96188.88;;;15.55;76.21
71105;BME280;58760;48.716;8.962;2022-09-09T06:51:44;96201.63;;;15.47;77.03
71105;BME280;58760;48.716;8.962;2022-09-09T06:54:10;96200.81;;;15.46;76.41
71105;BME280;58760;48.716;8.962;2022-09-09T06:56:39;96204.13;;;15.35;76.98
71105;BME280;58760;48.716;8.962;2022-09-09T06:59:09;96210.63;;;15.65;75.82
71105;BME280;58760;48.716;8.962;2022-09-09T07:01:37;96196.28;;;15.47;76.67
71105;BME280;58760;48.716;8.962;2022-09-09T07:04:04;96198.56;;;15.50;77.05
71105;BME280;58760;48.716;8.962;2022-09-09T07:06:37;96199.13;;;15.58;76.07
71105;BME280;58760;48.716;8.962;2022-09-09T07:09:05;96199.94;;;15.65;76.52
71105;BME280;58760;48.716;8.962;2022-09-09T07:11:34;96208.31;;;15.82;75.83
71105;BME280;58760;48.716;8.962;2022-09-09T07:14:02;96206.19;;;15.91;75.67
71105;BME280;58760;48.716;8.962;2022-09-09T07:16:28;96205.44;;;16.15;75.25
71105;BME280;58760;48.716;8.962;2022-09-09T07:18:54;96201.81;;;16.34;75.04
71105;BME280;58760;48.716;8.962;2022-09-09T07:21:29;96205.84;;;16.74;72.96
71105;BME280;58760;48.716;8.962;2022-09-09T07:23:54;96197.56;;;17.01;71.27
71105;BME280;58760;48.716;8.962;2022-09-09T07:26:22;96191.50;;;17.12;71.52
71105;BME280;58760;48.716;8.962;2022-09-09T07:28:48;96194.81;;;17.07;72.17
71105;BME280;58760;48.716;8.962;2022-09-09T07:31:16;96194.19;;;17.12;71.06
71105;BME280;58760;48.716;8.962;2022-09-09T07:33:43;96199.09;;;17.15;71.18
71105;BME280;58760;48.716;8.962;2022-09-09T07:36:12;96205.03;;;17.17;71.01
71105;BME280;58760;48.716;8.962;2022-09-09T07:38:43;96204.13;;;17.30;69.42
71105;BME280;58760;48.716;8.962;2022-09-09T07:41:13;96196.50;;;17.45;69.17
71105;BME280;58760;48.716;8.962;2022-09-09T07:43:40;96191.06;;;17.51;68.72
71105;BME280;58760;48.716;8.962;2022-09-09T07:46:06;96195.03;;;17.49;69.85
71105;BME280;58760;48.716;8.962;2022-09-09T07:48:32;96189.28;;;17.63;69.28
71105;BME280;58760;48.716;8.962;2022-09-09T07:53:31;96204.94;;;17.66;69.31
71105;BME280;58760;48.716;8.962;2022-09-09T07:56:03;96209.84;;;17.69;68.93
71105;BME280;58760;48.716;8.962;2022-09-09T07:58:28;96207.47;;;17.80;70.21
71105;BME280;58760;48.716;8.962;2022-09-09T08:00:54;96196.19;;;17.89;68.63
71105;BME280;58760;48.716;8.962;2022-09-09T08:03:19;96200.06;;;17.93;68.94
71105;BME280;58760;48.716;8.962;2022-09-09T08:05:47;96204.53;;;17.99;69.00
71105;BME280;58760;48.716;8.962;2022-09-09T08:08:12;96206.63;;;17.97;68.08
71105;BME280;58760;48.716;8.962;2022-09-09T08:10:37;96213.31;;;18.06;69.27
71105;BME280;58760;48.716;8.962;2022-09-09T08:13:03;96223.97;;;18.13;67.63
71105;BME280;58760;48.716;8.962;2022-09-09T08:15:28;96219.91;;;18.22;68.67
71105;BME280;58760;48.716;8.962;2022-09-09T08:17:56;96215.91;;;18.43;66.82
71105;BME280;58760;48.716;8.962;2022-09-09T08:20:21;96223.34;;;18.41;68.58
71105;BME280;58760;48.716;8.962;2022-09-09T08:22:48;96222.09;;;18.43;67.31
71105;BME280;58760;48.716;8.962;2022-09-09T08:25:15;96222.50;;;18.28;67.87
71105;BME280;58760;48.716;8.962;2022-09-09T08:27:40;96225.47;;;18.09;67.79
71105;BME280;58760;48.716;8.962;2022-09-09T08:30:06;96228.88;;;18.16;67.66
71105;BME280;58760;48.716;8.962;2022-09-09T08:32:31;96222.38;;;18.23;68.39
71105;BME280;58760;48.716;8.962;2022-09-09T08:34:57;96229.19;;;18.38;68.33
71105;BME280;58760;48.716;8.962;2022-09-09T08:37:22;96229.84;;;18.51;66.12
71105;BME280;58760;48.716;8.962;2022-09-09T08:39:48;96232.31;;;18.53;65.64
71105;BME280;58760;48.716;8.962;2022-09-09T08:42:17;96226.03;;;18.59;65.45
71105;BME280;58760;48.716;8.962;2022-09-09T08:50:05;96221.84;;;18.74;63.70
71105;BME280;58760;48.716;8.962;2022-09-09T08:52:55;96237.25;;;18.56;65.08
71105;BME280;58760;48.716;8.962;2022-09-09T08:57:50;96227.50;;;18.25;64.68
71105;BME280;58760;48.716;8.962;2022-09-09T09:00:18;96234.47;;;18.14;68.22
71105;BME280;58760;48.716;8.962;2022-09-09T09:06:01;96239.28;;;16.97;67.25
71105;BME280;58760;48.716;8.962;2022-09-09T09:08:42;96236.72;;;16.84;67.10
71105;BME280;58760;48.716;8.962;2022-09-09T09:11:09;96242.63;;;16.67;65.11
71105;BME280;58760;48.716;8.962;2022-09-09T09:16:19;96241.22;;;16.58;64.24
71105;BME280;58760;48.716;8.962;2022-09-09T09:18:47;96239.59;;;16.57;65.83
71105;BME280;58760;48.716;8.962;2022-09-09T09:21:24;96235.03;;;16.64;66.87
71105;BME280;58760;48.716;8.962;2022-09-09T09:23:59;96242.47;;;16.87;66.34
71105;BME280;58760;48.716;8.962;2022-09-09T09:26:34;96241.63;;;17.11;67.45
71105;BME280;58760;48.716;8.962;2022-09-09T09:29:08;96234.34;;;17.18;69.85
71105;BME280;58760;48.716;8.962;2022-09-09T09:31:35;96228.38;;;17.35;69.77
71105;BME280;58760;48.716;8.962;2022-09-09T09:34:00;96234.56;;;17.53;69.79
71105;BME280;58760;48.716;8.962;2022-09-09T09:36:37;96217.03;;;17.57;68.31
71105;BME280;58760;48.716;8.962;2022-09-09T09:39:04;96226.13;;;17.74;70.29
71105;BME280;58760;48.716;8.962;2022-09-09T09:41:31;96229.72;;;17.98;69.85
71105;BME280;58760;48.716;8.962;2022-09-09T09:43:58;96220.47;;;18.12;66.91
71105;BME280;58760;48.716;8.962;2022-09-09T09:46:24;96221.88;;;18.15;67.51
71105;BME280;58760;48.716;8.962;2022-09-09T09:49:01;96213.63;;;18.28;65.81
71105;BME280;58760;48.716;8.962;2022-09-09T09:51:29;96207.34;;;18.34;66.26
71105;BME280;58760;48.716;8.962;2022-09-09T09:56:35;96201.72;;;18.77;65.36
71105;BME280;58760;48.716;8.962;2022-09-09T09:59:00;96193.44;;;18.78;63.44
71105;BME280;58760;48.716;8.962;2022-09-09T10:01:28;96188.88;;;19.02;64.08
71105;BME280;58760;48.716;8.962;2022-09-09T10:04:03;96181.16;;;19.06;62.07
71105;BME280;58760;48.716;8.962;2022-09-09T10:06:38;96183.03;;;19.28;61.73
71105;BME280;58760;48.716;8.962;2022-09-09T10:09:27;96179.88;;;19.43;61.65
71105;BME280;58760;48.716;8.962;2022-09-09T10:17:25;96184.13;;;19.79;59.39
71105;BME280;58760;48.716;8.962;2022-09-09T10:20:21;96180.56;;;19.90;60.60
71105;BME280;58760;48.716;8.962;2022-09-09T10:23:09;96193.53;;;20.05;59.23
71105;BME280;58760;48.716;8.962;2022-09-09T10:26:16;96180.53;;;20.02;53.98
71105;BME280;58760;48.716;8.962;2022-09-09T10:35:14;96164.44;;;20.63;52.32
71105;BME280;58760;48.716;8.962;2022-09-09T10:51:02;96187.13;;;21.01;50.95
71105;BME280;58760;48.716;8.962;2022-09-09T10:54:16;96185.25;;;21.01;50.58
71105;BME280;58760;48.716;8.962;2022-09-09T10:56:34;96181.56;;;21.07;49.28
71105;BME280;58760;48.716;8.962;2022-09-09T10:59:05;96188.88;;;20.90;50.21
71105;BME280;58760;48.716;8.962;2022-09-09T11:01:56;96200.22;;;20.75;49.97
71105;BME280;58760;48.716;8.962;2022-09-09T11:04:24;96200.50;;;20.46;50.39
71105;BME280;58760;48.716;8.962;2022-09-09T11:06:54;96218.31;;;20.18;49.72
71105;BME280;58760;48.716;8.962;2022-09-09T11:09:27;96237.25;;;19.95;50.15
71105;BME280;58760;48.716;8.962;2022-09-09T11:11:56;96234.84;;;19.70;51.61
71105;BME280;58760;48.716;8.962;2022-09-09T11:14:39;96241.66;;;19.50;53.26
71105;BME280;58760;48.716;8.962;2022-09-09T11:17:18;96250.53;;;19.04;57.25
71105;BME280;58760;48.716;8.962;2022-09-09T11:19:45;96251.13;;;18.53;60.64
71105;BME280;58760;48.716;8.962;2022-09-09T11:22:54;96247.13;;;17.96;64.51
71105;BME280;58760;48.716;8.962;2022-09-09T11:25:26;96245.31;;;17.53;64.59
71105;BME280;58760;48.716;8.962;2022-09-09T11:30:20;96250.50;;;17.30;65.82
71105;BME280;58760;48.716;8.962;2022-09-09T11:35:38;96232.00;;;16.79;73.99
71105;BME280;58760;48.716;8.962;2022-09-09T11:38:16;96230.31;;;16.60;74.06
71105;BME280;58760;48.716;8.962;2022-09-09T11:40:45;96224.56;;;16.56;74.83
71105;BME280;58760;48.716;8.962;2022-09-09T11:43:19;96212.09;;;16.68;75.84
71105;BME280;58760;48.716;8.962;2022-09-09T11:45:52;96216.78;;;16.98;75.67
71105;BME280;58760;48.716;8.962;2022-09-09T11:48:32;96221.53;;;17.39;75.36
71105;BME280;58760;48.716;8.962;2022-09-09T11:51:13;96214.94;;;17.77;71.52
71105;BME280;58760;48.716;8.962;2022-09-09T11:53:55;96213.41;;;18.29;71.98
71105;BME280;58760;48.716;8.962;2022-09-09T11:56:32;96205.16;;;19.54;67.64
71105;BME280;58760;48.716;8.962;2022-09-09T11:59:49;96193.63;;;20.10;64.62
71105;BME280;58760;48.716;8.962;2022-09-09T12:04:35;96207.47;;;20.58;58.12
71105;BME280;58760;48.716;8.962;2022-09-09T12:09:45;96194.00;;;20.42;58.27
71105;BME280;58760;48.716;8.962;2022-09-09T12:19:41;96208.22;;;21.37;54.62
71105;BME280;58760;48.716;8.962;2022-09-09T12:22:26;96194.09;;;21.68;51.89
71105;BME280;58760;48.716;8.962;2022-09-09T12:28:30;96186.63;;;21.37;50.58
71105;BME280;58760;48.716;8.962;2022-09-09T12:33:34;96179.84;;;21.56;50.80
71105;BME280;58760;48.716;8.962;2022-09-09T12:36:01;96181.16;;;22.14;50.51
71105;BME280;58760;48.716;8.962;2022-09-09T12:40:57;96177.88;;;21.90;49.81
71105;BME280;58760;48.716;8.962;2022-09-09T12:43:24;96169.78;;;22.43;48.76
71105;BME280;58760;48.716;8.962;2022-09-09T12:45:55;96171.94;;;22.41;49.89
71105;BME280;58760;48.716;8.962;2022-09-09T12:48:29;96165.63;;;22.89;47.84
71105;BME280;58760;48.716;8.962;2022-09-09T12:50:56;96169.53;;;22.40;49.83
71105;BME280;58760;48.716;8.962;2022-09-09T12:53:32;96164.84;;;22.30;48.23
71105;BME280;58760;48.716;8.962;2022-09-09T12:56:02;96160.03;;;22.11;49.21
71105;BME280;58760;48.716;8.962;2022-09-09T12:58:29;96163.94;;;22.52;47.69
71105;BME280;58760;48.716;8.962;2022-09-09T13:00:58;96155.22;;;22.71;48.16
71105;BME280;58760;48.716;8.962;2022-09-09T13:03:25;96146.06;;;23.19;47.19
71105;BME280;58760;48.716;8.962;2022-09-09T13:05:53;96139.63;;;22.57;46.86
71105;BME280;58760;48.716;8.962;2022-09-09T13:08:19;96139.63;;;23.25;46.62
71105;BME280;58760;48.716;8.962;2022-09-09T13:10:57;96146.22;;;24.07;44.76
71105;BME280;58760;48.716;8.962;2022-09-09T13:13:38;96132.53;;;24.94;40.37
71105;BME280;58760;48.716;8.962;2022-09-09T13:16:27;96138.75;;;25.20;40.32
71105;BME280;58760;48.716;8.962;2022-09-09T13:18:52;96136.16;;;25.79;36.63
71105;BME280;58760;48.716;8.962;2022-09-09T13:21:18;96125.09;;;25.65;37.99
71105;BME280;58760;48.716;8.962;2022-09-09T13:23:49;96130.63;;;24.64;38.07
71105;BME280;58760;48.716;8.962;2022-09-09T13:26:25;96127.59;;;24.20;38.79
71105;BME280;58760;48.716;8.962;2022-09-09T13:28:51;96129.13;;;24.06;39.15
71105;BME280;58760;48.716;8.962;2022-09-09T13:31:29;96127.34;;;24.47;38.41
71105;BME280;58760;48.716;8.962;2022-09-09T13:33:55;96143.25;;;24.08;39.27
71105;BME280;58760;48.716;8.962;2022-09-09T13:36:32;96127.38;;;24.87;38.45
71105;BME280;58760;48.716;8.962;2022-09-09T13:39:00;96122.19;;;26.00;37.06
71105;BME280;58760;48.716;8.962;2022-09-09T13:41:36;96128.94;;;25.39;36.69
71105;BME280;58760;48.716;8.962;2022-09-09T13:44:04;96121.13;;;25.96;36.71
71105;BME280;58760;48.716;8.962;2022-09-09T13:46:39;96121.38;;;24.75;37.08
71105;BME280;58760;48.716;8.962;2022-09-09T13:51:46;96111.78;;;25.54;37.45
71105;BME280;58760;48.716;8.962;2022-09-09T13:54:14;96101.13;;;26.21;36.43
71105;BME280;58760;48.716;8.962;2022-09-09T13:56:41;96111.28;;;26.88;35.06
71105;BME280;58760;48.716;8.962;2022-09-09T13:59:18;96094.53;;;27.29;33.70
71105;BME280;58760;48.716;8.962;2022-09-09T14:01:45;96094.94;;;27.41;33.34
71105;BME280;58760;48.716;8.962;2022-09-09T14:04:11;96097.13;;;27.44;32.42
71105;BME280;58760;48.716;8.962;2022-09-09T14:06:36;96099.22;;;27.94;33.00
71105;BME280;58760;48.716;8.962;2022-09-09T14:09:05;96112.97;;;27.37;33.67
71105;BME280;58760;48.716;8.962;2022-09-09T14:11:31;96105.63;;;27.37;32.39
71105;BME280;58760;48.716;8.962;2022-09-09T14:13:57;96113.56;;;26.71;33.16
71105;BME280;58760;48.716;8.962;2022-09-09T14:16:22;96103.47;;;27.34;32.77
71105;BME280;58760;48.716;8.962;2022-09-09T14:18:48;96105.75;;;26.21;34.73
71105;BME280;58760;48.716;8.962;2022-09-09T14:21:14;96116.50;;;24.62;36.82
71105;BME280;58760;48.716;8.962;2022-09-09T14:23:41;96111.38;;;24.71;36.69
71105;BME280;58760;48.716;8.962;2022-09-09T14:26:07;96104.19;;;25.40;36.10
71105;BME280;58760;48.716;8.962;2022-09-09T14:28:33;96096.22;;;26.62;34.14
71105;BME280;58760;48.716;8.962;2022-09-09T14:31:00;96088.06;;;27.48;31.27
71105;BME280;58760;48.716;8.962;2022-09-09T14:33:27;96094.56;;;27.95;31.42
71105;BME280;58760;48.716;8.962;2022-09-09T14:36:01;96108.44;;;27.27;31.44
71105;BME280;58760;48.716;8.962;2022-09-09T14:38:33;96105.09;;;27.83;31.86
71105;BME280;58760;48.716;8.962;2022-09-09T14:41:02;96109.00;;;26.95;31.72
71105;BME280;58760;48.716;8.962;2022-09-09T14:43:28;96112.50;;;25.79;34.08
71105;BME280;58760;48.716;8.962;2022-09-09T14:45:55;96113.69;;;25.43;34.75
71105;BME280;58760;48.716;8.962;2022-09-09T14:48:20;96108.41;;;26.31;33.58
71105;BME280;58760;48.716;8.962;2022-09-09T14:50:46;96107.50;;;26.84;32.89
71105;BME280;58760;48.716;8.962;2022-09-09T14:53:11;96113.44;;;26.09;32.70
71105;BME280;58760;48.716;8.962;2022-09-09T14:55:37;96117.59;;;25.07;34.63
71105;BME280;58760;48.716;8.962;2022-09-09T14:58:03;96116.50;;;24.52;35.72
71105;BME280;58760;48.716;8.962;2022-09-09T15:00:29;96115.34;;;24.03;36.56
71105;BME280;58760;48.716;8.962;2022-09-09T15:02:54;96120.84;;;23.51;38.08